createdAt,value
2018-02-21T00:00:39.347Z,-0.50
2018-02-21T00:03:06.828Z,-0.50
2018-02-21T00:05:34.320Z,-0.50
2018-02-21T00:08:01.803Z,-0.40
2018-02-21T00:10:29.293Z,-0.50
2018-02-21T00:12:57.549Z,-0.50
2018-02-21T00:15:25.154Z,-0.50
2018-02-21T00:17:52.631Z,-0.60
2018-02-21T00:20:20.124Z,-0.50
2018-02-21T00:22:47.601Z,-0.50
2018-02-21T00:25:15.855Z,-0.50
2018-02-21T00:27:43.347Z,-0.60
2018-02-21T00:30:11.603Z,-0.60
2018-02-21T00:32:39.849Z,-0.60
2018-02-21T00:35:07.357Z,-0.60
2018-02-21T00:37:41.033Z,-0.50
2018-02-21T00:40:08.517Z,-0.50
2018-02-21T00:42:36.000Z,-0.60
2018-02-21T00:45:03.496Z,-0.60
2018-02-21T00:47:30.972Z,-0.70
2018-02-21T00:49:59.214Z,-0.60
2018-02-21T00:52:26.686Z,-0.60
2018-02-21T00:54:54.196Z,-0.60
2018-02-21T00:57:21.677Z,-0.60
2018-02-21T00:59:49.140Z,-0.70
2018-02-21T01:02:16.637Z,-0.60
2018-02-21T01:04:44.889Z,-0.60
2018-02-21T01:07:13.352Z,-0.60
2018-02-21T01:09:40.837Z,-0.60
2018-02-21T01:12:08.322Z,-0.60
2018-02-21T01:14:35.796Z,-0.60
2018-02-21T01:17:03.293Z,-0.60
2018-02-21T01:19:30.759Z,-0.60
2018-02-21T01:21:58.248Z,-0.60
2018-02-21T01:24:26.486Z,-0.70
2018-02-21T01:26:53.980Z,-0.70
2018-02-21T01:29:22.348Z,-0.70
2018-02-21T01:31:50.600Z,-0.70
2018-02-21T01:34:18.072Z,-0.70
2018-02-21T01:36:46.328Z,-0.70
2018-02-21T01:39:13.812Z,-0.70
2018-02-21T01:41:41.296Z,-0.70
2018-02-21T01:44:08.815Z,-0.60
2018-02-21T01:46:36.300Z,-0.60
2018-02-21T01:49:04.532Z,-0.60
2018-02-21T01:51:32.119Z,-0.60
2018-02-21T01:54:00.377Z,-0.70
2018-02-21T01:56:27.881Z,-0.70
2018-02-21T01:58:55.352Z,-0.70
2018-02-21T02:01:22.871Z,-0.60
2018-02-21T02:03:51.428Z,-0.70
2018-02-21T02:06:18.923Z,-0.80
2018-02-21T02:08:47.155Z,-0.80
2018-02-21T02:11:14.656Z,-0.80
2018-02-21T02:13:42.919Z,-0.90
2018-02-21T02:16:10.400Z,-0.90
2018-02-21T02:18:37.882Z,-0.80
2018-02-21T02:21:05.376Z,-0.80
2018-02-21T02:23:33.673Z,-0.80
2018-02-21T02:26:01.136Z,-0.80
2018-02-21T02:28:29.395Z,-0.80
2018-02-21T02:30:58.387Z,-0.70
2018-02-21T02:33:25.960Z,-0.70
2018-02-21T02:35:53.445Z,-0.70
2018-02-21T02:38:33.001Z,-0.80
2018-02-21T02:41:00.468Z,-0.80
2018-02-21T02:43:27.945Z,-0.80
2018-02-21T02:45:55.439Z,-0.80
2018-02-21T02:48:23.715Z,-0.80
2018-02-21T02:50:51.951Z,-0.80
2018-02-21T02:53:19.443Z,-0.80
2018-02-21T02:55:47.684Z,-0.90
2018-02-21T02:58:15.183Z,-0.90
2018-02-21T03:00:43.417Z,-0.80
2018-02-21T03:03:10.999Z,-0.80
2018-02-21T03:05:38.484Z,-0.80
2018-02-21T03:08:06.746Z,-0.80
2018-02-21T03:10:35.003Z,-0.80
2018-02-21T03:13:03.291Z,-0.80
2018-02-21T03:15:31.375Z,-0.80
2018-02-21T03:20:51.665Z,-0.80
2018-02-21T03:23:19.949Z,-0.80
2018-02-21T03:25:47.437Z,-0.80
2018-02-21T03:28:14.922Z,-0.80
2018-02-21T03:30:42.411Z,-0.80
2018-02-21T03:33:09.900Z,-0.90
2018-02-21T03:35:38.160Z,-0.90
2018-02-21T03:38:07.158Z,-0.90
2018-02-21T03:40:34.642Z,-0.90
2018-02-21T03:43:02.124Z,-0.80
2018-02-21T03:45:29.596Z,-0.80
2018-02-21T03:47:57.111Z,-0.70
2018-02-21T03:50:24.590Z,-0.70
2018-02-21T03:52:52.081Z,-0.70
2018-02-21T03:55:19.560Z,-0.70
2018-02-21T03:57:47.073Z,-0.80
2018-02-21T04:00:14.554Z,-0.80
2018-02-21T04:02:42.681Z,-0.70
2018-02-21T04:05:10.174Z,-0.70
2018-02-21T04:07:37.664Z,-0.70
2018-02-21T04:10:05.146Z,-0.70
2018-02-21T04:12:33.403Z,-0.70
2018-02-21T04:15:00.878Z,-0.70
2018-02-21T04:17:29.132Z,-0.60
2018-02-21T04:19:57.631Z,-0.70
2018-02-21T04:22:25.897Z,-0.80
2018-02-21T04:24:54.468Z,-0.90
2018-02-21T04:27:21.970Z,-0.90
2018-02-21T04:29:49.462Z,-0.80
2018-02-21T04:32:16.960Z,-0.70
2018-02-21T04:34:45.198Z,-0.90
2018-02-21T04:37:26.217Z,-0.90
2018-02-21T04:39:54.468Z,-0.70
2018-02-21T04:42:21.961Z,-0.70
2018-02-21T04:44:49.461Z,-0.70
2018-02-21T04:47:16.954Z,-0.70
2018-02-21T04:49:45.193Z,-0.70
2018-02-21T04:52:12.684Z,-0.70
2018-02-21T04:54:47.892Z,-0.70
2018-02-21T05:10:45.269Z,-0.70
2018-02-21T05:13:13.550Z,-0.80
2018-02-21T05:15:41.788Z,-0.80
2018-02-21T05:18:09.290Z,-0.80
2018-02-21T05:20:37.564Z,-0.90
2018-02-21T05:23:05.830Z,-0.90
2018-02-21T05:25:33.310Z,-0.90
2018-02-21T05:28:00.806Z,-0.90
2018-02-21T05:30:28.287Z,-0.90
2018-02-21T05:32:55.786Z,-0.80
2018-02-21T05:35:24.571Z,-0.80
2018-02-21T05:37:52.073Z,-0.70
2018-02-21T05:40:19.564Z,-0.80
2018-02-21T05:42:47.631Z,-0.70
2018-02-21T05:45:15.121Z,-0.70
2018-02-21T05:47:42.626Z,-0.70
2018-02-21T05:50:10.233Z,-0.70
2018-02-21T05:52:38.548Z,-0.70
2018-02-21T05:55:06.005Z,-0.80
2018-02-21T05:57:34.519Z,-0.80
2018-02-21T06:00:02.790Z,-0.70
2018-02-21T06:02:30.266Z,-0.70
2018-02-21T06:04:57.760Z,-0.80
2018-02-21T06:07:25.240Z,-0.80
2018-02-21T06:09:52.746Z,-0.70
2018-02-21T06:12:20.999Z,-0.70
2018-02-21T06:14:48.498Z,-0.70
2018-02-21T06:17:16.024Z,-0.70
2018-02-21T06:19:43.870Z,-0.80
2018-02-21T06:22:11.345Z,-0.80
2018-02-21T06:24:38.842Z,-0.70
2018-02-21T06:27:06.339Z,-0.80
2018-02-21T06:29:33.836Z,-0.80
2018-02-21T06:32:02.123Z,-0.80
2018-02-21T06:34:30.404Z,-0.80
2018-02-21T06:36:57.885Z,-0.80
2018-02-21T06:39:25.389Z,-0.70
2018-02-21T06:41:52.884Z,-0.70
2018-02-21T06:44:20.386Z,-0.70
2018-02-21T06:46:47.879Z,-0.70
2018-02-21T06:49:15.402Z,-0.70
2018-02-21T06:51:42.886Z,-0.80
2018-02-21T06:54:10.386Z,-0.80
2018-02-21T06:56:37.860Z,-0.80
2018-02-21T06:59:05.376Z,-0.70
2018-02-21T07:01:33.621Z,-0.70
2018-02-21T07:04:01.119Z,-0.70
2018-02-21T07:06:28.608Z,-0.60
2018-02-21T07:08:56.098Z,-0.60
2018-02-21T07:11:23.576Z,-0.60
2018-02-21T07:13:51.862Z,-0.50
2018-02-21T07:16:20.120Z,-0.50
2018-02-21T07:18:47.625Z,-0.50
2018-02-21T07:21:15.106Z,-0.50
2018-02-21T07:23:42.627Z,-0.40
2018-02-21T07:26:10.134Z,-0.40
2018-02-21T07:28:37.716Z,-0.40
2018-02-21T07:31:05.225Z,-0.40
2018-02-21T07:33:32.719Z,-0.30
2018-02-21T07:36:02.652Z,-0.40
2018-02-21T07:38:30.903Z,-0.50
2018-02-21T07:40:58.401Z,-0.50
2018-02-21T07:43:25.888Z,-0.40
2018-02-21T07:45:53.402Z,-0.40
2018-02-21T07:48:21.651Z,-0.30
2018-02-21T07:50:49.155Z,-0.30
2018-02-21T07:53:16.643Z,-0.30
2018-02-21T07:55:44.133Z,-0.30
2018-02-21T07:58:11.613Z,-0.30
2018-02-21T08:00:39.866Z,-0.30
2018-02-21T08:03:07.354Z,-0.30
2018-02-21T08:05:35.634Z,-0.30
2018-02-21T08:08:03.876Z,-0.20
2018-02-21T08:10:32.148Z,-0.20
2018-02-21T08:12:59.630Z,-0.20
2018-02-21T08:15:28.002Z,-0.20
2018-02-21T08:17:55.484Z,-0.20
2018-02-21T08:20:22.990Z,-0.20
2018-02-21T08:22:50.494Z,-0.20
2018-02-21T08:25:18.807Z,-0.10
2018-02-21T08:27:46.292Z,-0.10
2018-02-21T08:30:14.607Z,-0.10
2018-02-21T08:32:42.856Z,-0.10
2018-02-21T08:35:10.367Z,-0.10
2018-02-21T08:37:37.858Z,-0.10
2018-02-21T08:40:05.379Z,-0.10
2018-02-21T08:42:32.874Z,0.00
2018-02-21T08:45:00.371Z,0.10
2018-02-21T08:47:28.614Z,0.20
2018-02-21T08:49:56.107Z,0.20
2018-02-21T08:52:24.367Z,0.20
2018-02-21T08:54:52.640Z,0.20
2018-02-21T08:57:21.622Z,0.20
2018-02-21T08:59:49.138Z,0.30
2018-02-21T09:02:16.647Z,0.30
2018-02-21T09:04:44.926Z,0.40
2018-02-21T09:07:12.412Z,0.40
2018-02-21T09:09:39.888Z,0.40
2018-02-21T09:12:07.374Z,0.50
2018-02-21T09:14:34.857Z,0.50
2018-02-21T09:17:03.867Z,0.60
2018-02-21T09:19:32.122Z,0.60
2018-02-21T09:21:59.613Z,0.60
2018-02-21T09:24:27.102Z,0.70
2018-02-21T09:26:54.589Z,0.80
2018-02-21T09:29:22.078Z,0.90
2018-02-21T09:31:49.583Z,0.90
2018-02-21T09:34:17.070Z,0.80
2018-02-21T09:36:44.651Z,0.90
2018-02-21T09:39:12.908Z,0.90
2018-02-21T09:41:40.393Z,0.90
2018-02-21T09:44:07.931Z,1.00
2018-02-21T09:46:36.610Z,0.90
2018-02-21T09:49:04.867Z,0.90
2018-02-21T09:51:32.374Z,0.80
2018-02-21T09:53:59.881Z,0.90
2018-02-21T09:56:27.371Z,0.90
2018-02-21T09:58:55.606Z,1.00
2018-02-21T10:01:23.116Z,1.00
2018-02-21T10:03:51.371Z,1.00
2018-02-21T10:06:18.874Z,1.00
2018-02-21T10:08:46.358Z,1.10
2018-02-21T10:11:13.863Z,1.20
2018-02-21T10:13:42.112Z,1.20
2018-02-21T10:16:09.613Z,1.20
2018-02-21T10:18:37.098Z,1.20
2018-02-21T10:21:04.593Z,1.20
2018-02-21T10:23:32.074Z,1.30
2018-02-21T10:26:00.337Z,1.70
2018-02-21T10:28:28.587Z,1.60
2018-02-21T10:30:56.074Z,1.60
2018-02-21T10:33:24.321Z,1.80
2018-02-21T10:35:51.806Z,1.80
2018-02-21T10:38:20.061Z,1.80
2018-02-21T10:40:48.642Z,2.00
2018-02-21T10:43:16.118Z,2.00
2018-02-21T10:45:44.369Z,2.30
2018-02-21T10:48:11.859Z,2.20
2018-02-21T10:50:40.098Z,2.10
2018-02-21T10:53:07.590Z,2.10
2018-02-21T10:55:35.847Z,2.00
2018-02-21T10:58:03.325Z,2.00
2018-02-21T11:00:37.380Z,1.90
2018-02-21T11:03:04.866Z,1.90
2018-02-21T11:05:33.865Z,2.10
2018-02-21T11:08:01.349Z,2.10
2018-02-21T11:10:29.594Z,2.20
2018-02-21T11:12:58.691Z,2.00
2018-02-21T11:15:26.182Z,1.90
2018-02-21T11:17:54.554Z,2.00
2018-02-21T11:20:22.816Z,2.30
2018-02-21T11:22:50.364Z,2.30
2018-02-21T11:25:17.856Z,2.30
2018-02-21T11:27:46.147Z,1.90
2018-02-21T11:30:13.621Z,1.90
2018-02-21T11:32:41.136Z,1.70
2018-02-21T11:35:09.381Z,2.00
2018-02-21T11:37:36.935Z,1.90
2018-02-21T11:40:04.416Z,2.10
2018-02-21T11:42:32.674Z,2.00
2018-02-21T11:45:00.158Z,2.00
2018-02-21T11:47:28.454Z,2.10
2018-02-21T11:49:56.713Z,2.20
2018-02-21T11:52:24.978Z,2.00
2018-02-21T11:54:52.458Z,2.00
2018-02-21T11:57:20.729Z,2.10
2018-02-21T11:59:48.975Z,1.90
2018-02-21T12:02:16.467Z,1.90
2018-02-21T12:04:44.776Z,1.90
2018-02-21T12:07:12.228Z,1.90
2018-02-21T12:09:39.723Z,1.90
2018-02-21T12:12:07.211Z,1.90
2018-02-21T12:14:35.480Z,2.30
2018-02-21T12:17:03.739Z,2.20
2018-02-21T12:19:31.219Z,2.20
2018-02-21T12:21:59.490Z,2.30
2018-02-21T12:24:27.733Z,2.10
2018-02-21T12:26:56.210Z,2.10
2018-02-21T12:29:23.692Z,2.30
2018-02-21T12:32:02.998Z,2.40
2018-02-21T12:34:30.493Z,2.40
2018-02-21T12:36:57.994Z,2.30
2018-02-21T12:42:18.771Z,2.20
2018-02-21T12:44:46.255Z,2.20
2018-02-21T12:47:13.738Z,2.20
2018-02-21T12:49:41.221Z,2.20
2018-02-21T12:52:08.849Z,2.20
2018-02-21T12:54:36.309Z,2.20
2018-02-21T12:57:03.805Z,2.00
2018-02-21T12:59:31.298Z,1.90
2018-02-21T13:01:59.536Z,2.00
2018-02-21T13:04:27.025Z,2.00
2018-02-21T13:06:55.267Z,2.20
2018-02-21T13:09:22.753Z,2.20
2018-02-21T13:11:51.008Z,2.20
2018-02-21T13:14:18.502Z,2.20
2018-02-21T13:16:46.749Z,2.30
2018-02-21T13:19:15.152Z,2.30
2018-02-21T13:21:43.399Z,2.40
2018-02-21T13:24:11.033Z,2.40
2018-02-21T13:26:38.517Z,2.40
2018-02-21T13:29:06.032Z,2.40
2018-02-21T13:31:33.511Z,2.50
2018-02-21T13:34:01.000Z,2.50
2018-02-21T13:36:28.558Z,2.60
2018-02-21T13:38:56.053Z,2.60
2018-02-21T13:41:24.472Z,2.60
2018-02-21T13:43:51.961Z,2.70
2018-02-21T13:46:20.227Z,2.70
2018-02-21T13:48:47.722Z,2.60
2018-02-21T13:51:15.207Z,2.60
2018-02-21T13:53:42.688Z,2.80
2018-02-21T13:56:10.174Z,2.80
2018-02-21T13:58:37.683Z,2.80
2018-02-21T14:01:05.450Z,2.80
2018-02-21T14:03:32.931Z,2.80
2018-02-21T14:06:00.528Z,2.80
2018-02-21T14:08:28.774Z,2.80
2018-02-21T14:10:57.763Z,2.60
2018-02-21T14:13:25.268Z,2.60
2018-02-21T14:15:52.774Z,2.60
2018-02-21T14:18:21.077Z,2.50
2018-02-21T14:20:49.325Z,2.50
2018-02-21T14:23:16.839Z,2.40
2018-02-21T14:25:44.326Z,2.50
2018-02-21T14:28:11.826Z,2.50
2018-02-21T14:30:39.289Z,2.40
2018-02-21T14:33:08.300Z,2.30
2018-02-21T14:35:36.555Z,2.30
2018-02-21T14:38:04.809Z,2.30
2018-02-21T14:40:32.297Z,2.30
2018-02-21T14:43:00.548Z,2.30
2018-02-21T14:45:28.818Z,2.30
2018-02-21T14:47:58.736Z,2.20
2018-02-21T14:50:26.238Z,2.30
2018-02-21T14:52:53.745Z,2.30
2018-02-21T14:55:21.245Z,2.10
2018-02-21T14:57:49.523Z,2.10
2018-02-21T15:00:17.015Z,2.10
2018-02-21T15:02:44.493Z,2.20
2018-02-21T15:05:11.982Z,2.10
2018-02-21T15:07:40.252Z,2.10
2018-02-21T15:10:07.753Z,2.10
2018-02-21T15:12:35.230Z,2.00
2018-02-21T15:15:02.727Z,2.00
2018-02-21T15:17:30.969Z,2.00
2018-02-21T15:19:58.453Z,2.00
2018-02-21T15:22:26.712Z,1.90
2018-02-21T15:24:54.221Z,1.90
2018-02-21T15:27:21.703Z,1.90
2018-02-21T15:29:49.184Z,1.90
2018-02-21T15:32:16.786Z,1.90
2018-02-21T15:34:45.045Z,1.80
2018-02-21T15:37:12.533Z,1.80
2018-02-21T15:39:40.015Z,1.80
2018-02-21T15:42:07.493Z,1.80
2018-02-21T15:44:34.982Z,1.80
2018-02-21T15:47:03.226Z,1.70
2018-02-21T15:49:30.819Z,1.70
2018-02-21T15:51:59.090Z,1.60
2018-02-21T15:54:27.330Z,1.60
2018-02-21T15:56:54.820Z,1.60
2018-02-21T15:59:22.305Z,1.50
2018-02-21T16:01:49.775Z,1.50
2018-02-21T16:04:17.282Z,1.40
2018-02-21T16:06:44.758Z,1.40
2018-02-21T16:09:12.234Z,1.40
2018-02-21T16:11:40.473Z,1.20
2018-02-21T16:14:09.473Z,1.20
2018-02-21T16:16:37.728Z,1.20
2018-02-21T16:19:05.216Z,1.20
2018-02-21T16:21:33.492Z,1.10
2018-02-21T16:24:01.729Z,1.10
2018-02-21T16:26:29.232Z,1.00
2018-02-21T16:28:57.474Z,1.00
2018-02-21T16:31:24.975Z,1.00
2018-02-21T16:33:53.218Z,1.00
2018-02-21T16:36:21.509Z,0.90
2018-02-21T16:38:48.988Z,0.90
2018-02-21T16:41:17.241Z,0.90
2018-02-21T16:43:44.826Z,0.80
2018-02-21T16:46:13.085Z,0.70
2018-02-21T16:48:41.345Z,0.70
2018-02-21T16:51:10.341Z,0.60
2018-02-21T16:53:37.831Z,0.60
2018-02-21T16:56:05.312Z,0.70
2018-02-21T16:58:32.785Z,0.60
2018-02-21T17:01:00.262Z,0.60
2018-02-21T17:03:27.733Z,0.60
2018-02-21T17:05:55.222Z,0.50
2018-02-21T17:08:22.718Z,0.50
2018-02-21T17:10:50.221Z,0.50
2018-02-21T17:13:18.482Z,0.50
2018-02-21T17:15:45.976Z,0.40
2018-02-21T17:18:13.468Z,0.40
2018-02-21T17:20:41.104Z,0.40
2018-02-21T17:23:09.348Z,0.40
2018-02-21T17:25:37.606Z,0.40
2018-02-21T17:28:06.613Z,0.30
2018-02-21T17:30:35.812Z,0.30
2018-02-21T17:33:04.050Z,0.30
2018-02-21T17:35:31.549Z,0.30
2018-02-21T17:37:59.797Z,0.30
2018-02-21T17:40:27.288Z,0.30
2018-02-21T17:42:55.542Z,0.20
2018-02-21T17:45:23.034Z,0.30
2018-02-21T17:47:50.520Z,0.20
2018-02-21T17:50:18.031Z,0.20
2018-02-21T17:52:46.272Z,0.20
2018-02-21T17:55:13.770Z,0.20
2018-02-21T17:57:42.034Z,0.20
2018-02-21T18:00:09.519Z,0.10
2018-02-21T18:02:36.995Z,0.20
2018-02-21T18:05:04.486Z,0.20
2018-02-21T18:07:31.981Z,0.00
2018-02-21T18:10:00.937Z,0.10
2018-02-21T18:12:28.433Z,0.10
2018-02-21T18:14:56.661Z,0.10
2018-02-21T18:17:24.153Z,0.10
2018-02-21T18:19:51.625Z,0.10
2018-02-21T18:22:19.873Z,0.10
2018-02-21T18:24:48.267Z,0.00
2018-02-21T18:27:16.521Z,0.00
2018-02-21T18:29:45.506Z,0.00
2018-02-21T18:32:12.998Z,0.00
2018-02-21T18:34:41.242Z,0.00
2018-02-21T18:37:09.546Z,-0.10
2018-02-21T18:39:37.787Z,-0.10
2018-02-21T18:42:05.318Z,-0.10
2018-02-21T18:44:32.800Z,-0.10
2018-02-21T18:47:00.290Z,-0.20
2018-02-21T18:49:27.778Z,-0.20
2018-02-21T18:51:55.278Z,-0.10
2018-02-21T18:54:22.754Z,-0.20
2018-02-21T18:56:50.245Z,-0.20
2018-02-21T18:59:18.496Z,-0.20
2018-02-21T19:01:45.979Z,-0.20
2018-02-21T19:04:13.468Z,-0.30
2018-02-21T19:06:40.974Z,-0.30
2018-02-21T19:09:08.460Z,-0.30
2018-02-21T19:11:35.957Z,-0.30
2018-02-21T19:14:03.444Z,-0.30
2018-02-21T19:16:30.926Z,-0.30
2018-02-21T19:18:59.173Z,-0.40
2018-02-21T19:21:27.424Z,-0.50
2018-02-21T19:23:54.904Z,-0.50
2018-02-21T19:26:22.403Z,-0.50
2018-02-21T19:28:49.944Z,-0.50
2018-02-21T19:31:18.246Z,-0.50
2018-02-21T19:33:45.759Z,-0.50
2018-02-21T19:36:13.253Z,-0.50
2018-02-21T19:38:40.719Z,-0.50
2018-02-21T19:41:08.204Z,-0.60
2018-02-21T19:43:35.705Z,-0.50
2018-02-21T19:46:03.964Z,-0.50
2018-02-21T19:48:31.533Z,-0.50
2018-02-21T19:50:59.774Z,-0.60
2018-02-21T19:53:27.274Z,-0.60
2018-02-21T19:55:55.516Z,-0.60
2018-02-21T19:58:23.008Z,-0.60
2018-02-21T20:00:51.254Z,-0.60
2018-02-21T20:03:18.796Z,-0.60
2018-02-21T20:05:46.294Z,-0.60
2018-02-21T20:08:13.801Z,-0.60
2018-02-21T20:10:41.278Z,-0.70
2018-02-21T20:13:08.783Z,-0.70
2018-02-21T20:15:37.024Z,-0.70
2018-02-21T20:18:04.519Z,-0.70
2018-02-21T20:20:32.774Z,-0.80
2018-02-21T20:23:00.266Z,-0.80
2018-02-21T20:25:27.744Z,-0.80
2018-02-21T20:27:55.237Z,-0.80
2018-02-21T20:30:22.739Z,-0.80
2018-02-21T20:32:50.234Z,-0.80
2018-02-21T20:35:18.466Z,-0.80
2018-02-21T20:37:46.725Z,-0.70
2018-02-21T20:40:14.974Z,-0.80
2018-02-21T20:42:42.466Z,-0.80
2018-02-21T20:45:10.700Z,-0.80
2018-02-21T20:47:38.215Z,-0.80
2018-02-21T20:50:05.710Z,-0.80
2018-02-21T20:52:33.205Z,-0.80
2018-02-21T20:55:00.684Z,-0.80
2018-02-21T20:57:29.044Z,-0.80
2018-02-21T20:59:57.324Z,-0.90
2018-02-21T21:02:24.872Z,-0.80
2018-02-21T21:04:53.122Z,-1.00
2018-02-21T21:07:20.614Z,-1.00
2018-02-21T21:09:48.857Z,-1.00
2018-02-21T21:12:16.380Z,-1.00
2018-02-21T21:14:43.869Z,-1.00
2018-02-21T21:17:11.361Z,-1.00
2018-02-21T21:19:40.849Z,-1.00
2018-02-21T21:22:08.340Z,-1.10
2018-02-21T21:24:36.576Z,-1.10
2018-02-21T21:27:04.085Z,-1.10
2018-02-21T21:29:31.575Z,-1.10
2018-02-21T21:31:59.993Z,-1.10
2018-02-21T21:34:27.489Z,-1.20
2018-02-21T21:36:54.980Z,-1.10
2018-02-21T21:39:22.488Z,-1.20
2018-02-21T21:41:50.730Z,-1.10
2018-02-21T21:44:18.222Z,-1.10
2018-02-21T21:46:46.484Z,-1.30
2018-02-21T21:49:14.741Z,-1.20
2018-02-21T21:51:42.245Z,-1.20
2018-02-21T21:54:09.753Z,-1.30
2018-02-21T21:56:37.248Z,-1.40
2018-02-21T21:59:04.747Z,-1.30
2018-02-21T22:01:32.231Z,-1.30
2018-02-21T22:03:59.741Z,-1.30
2018-02-21T22:06:27.216Z,-1.30
2018-02-21T22:08:54.713Z,-1.30
2018-02-21T22:11:22.212Z,-1.40
2018-02-21T22:13:50.761Z,-1.40
2018-02-21T22:16:19.013Z,-1.40
2018-02-21T22:18:46.500Z,-1.50
2018-02-21T22:21:14.749Z,-1.40
2018-02-21T22:23:42.263Z,-1.40
2018-02-21T22:26:09.742Z,-1.40
2018-02-21T22:28:37.259Z,-1.40
2018-02-21T22:31:05.526Z,-1.50
2018-02-21T22:33:33.780Z,-1.50
2018-02-21T22:36:01.273Z,-1.50
2018-02-21T22:38:29.533Z,-1.50
2018-02-21T22:40:57.795Z,-1.50
2018-02-21T22:43:25.290Z,-1.50
2018-02-21T22:45:52.764Z,-1.60
2018-02-21T22:48:20.269Z,-1.60
2018-02-21T22:50:47.736Z,-1.50
2018-02-21T22:53:16.008Z,-1.60
2018-02-21T22:55:43.484Z,-1.60
2018-02-21T22:58:11.744Z,-1.60
2018-02-21T23:00:39.255Z,-1.70
2018-02-21T23:03:06.731Z,-1.70
2018-02-21T23:05:34.208Z,-1.70
2018-02-21T23:08:01.718Z,-1.80
2018-02-21T23:10:29.243Z,-1.80
2018-02-21T23:12:57.502Z,-1.80
2018-02-21T23:15:25.001Z,-1.80
2018-02-21T23:17:59.188Z,-1.70
2018-02-21T23:20:27.473Z,-1.90
2018-02-21T23:22:55.709Z,-1.90
2018-02-21T23:25:23.211Z,-1.90
2018-02-21T23:27:51.481Z,-1.90
2018-02-21T23:30:19.733Z,-1.90
2018-02-21T23:32:47.221Z,-1.90
2018-02-21T23:35:15.480Z,-1.90
2018-02-21T23:37:43.735Z,-1.90
2018-02-21T23:40:11.218Z,-1.90
2018-02-21T23:42:38.690Z,-2.00
2018-02-21T23:45:06.956Z,-1.90
2018-02-21T23:47:35.224Z,-1.90
2018-02-21T23:50:02.740Z,-1.90
2018-02-21T23:52:30.225Z,-1.90
2018-02-21T23:54:57.810Z,-1.90
2018-02-21T23:57:26.066Z,-1.90
2018-02-21T23:59:53.557Z,-1.90
